17:21
Airports
History
Links
Donate
Help keep this website running!
PayPal
Bitcoin
This page is community maintained. The information is intended for PC simulator navigation or reference.
Always use approved charts for navigation.
NTAT
TUBUAI
TUBUAI (NTAT)
Austral Islands, French Polynesia
(U)
Lat/Lng:23° 21' 55.27" S / 149° 31' 26.67" W
-23.365353 / -149.524074
Elevation:7'ft / 2mMSL
ID / ICAO:NTAT
Runways:1
Longest:03-21
Asphalt 1,497m / 4,910ft
METAR19:00 GMT 2017-01-12
Altimeter: 29.83
Visibility: 6.2 statute miles
Wind: 11 knots (from 230°)
Temp: 26°c / 79°f
Humidity: 88.8%

METAR: NTAT 121900Z AUTO 23011KT 9999 SCT015/// BKN023/// OVC030/// 26/24 Q1010

(Powered by phpweather)
Airport Radio Frequencies
Tower: 118.3
Runway 03 / 21
Dimensions:1496.7 x 22.9m 4910' x 75'ft
Surface:Asphalt
Edge Lights:Low intensity
Runway 03 [A]Runway 21 [B]
Heading:048°TH 228°TH
Lat:
Lng:
23° 22' 11.47"S
149° 31' 46.4"W
23° 21' 39.07"S
149° 31' 6.93"W
TDZ:Yes, lighted
User Notes and Comments
23° 21' 55.27" S / 149° 31' 26.67" W
Distance To
Airport ID:
Nearby Airports
(U) RAIVAVAE 123.2 NM
NTAV ESE 106°
(U) RURUTU 133.4 NM
NTAR WNW 298°
(C) Faaa 401.6 NM
NTAA ( WX ) N 359°
(C) Moorea 406.2 NM
NTTM N 357°
(U) Tetiaroa 439.1 NM
NTTE N 359°
(C) Huahine 471.5 NM
NTTH NNW 348°
(C) Raiatea 475.9 NM
NTTR NNW 344°
VFR Chart
Flight Planning at SkyVector.com